Time;durP1;ratioP1;P1;durP2;ratioP2;P2;SDS_P1;SDS_P2;PMS_P1;PMS_P2;Temp;Humidity;BMP_temperature;BMP_pressure;BME280_temperature;BME280_humidity;BME280_pressure;Samples;Min_cycle;Max_cycle;Signal;HPM_P1;HPM_P2
2022/03/28 00:00:38;;;;;;;19.33;13.65;;;;;;;;;;6231843;23;20337;-84
2022/03/28 00:03:05;;;;;;;18.98;12.25;;;;;;;;;;6232405;23;20085;-86
2022/03/28 00:05:31;;;;;;;15.88;11.20;;;;;;;;;;6182548;23;20499;-85
2022/03/28 00:07:57;;;;;;;21.63;12.70;;;;;;;;;;6231654;23;20030;-85
2022/03/28 00:10:24;;;;;;;20.63;13.10;;;;;;;;;;6233822;23;20024;-84
2022/03/28 00:12:50;;;;;;;17.75;10.82;;;;;;;;;;6232888;23;20634;-84
2022/03/28 00:15:16;;;;;;;13.45;9.55;;;;;;;;;;6234784;23;20459;-84
2022/03/28 00:17:42;;;;;;;15.43;8.00;;;;;;;;;;6231369;23;20081;-85
2022/03/28 00:20:12;;;;;;;8.35;5.70;;;;;;;;;;6232766;23;20027;-85
2022/03/28 00:22:47;;;;;;;5.90;4.22;;;;;;;;;;6226244;23;20391;-86
2022/03/28 00:25:20;;;;;;;9.82;6.25;;;;;;;;;;6234871;23;20444;-85
2022/03/28 00:27:49;;;;;;;13.95;7.07;;;;;;;;;;6236293;23;20024;-84
2022/03/28 00:30:15;;;;;;;18.58;9.40;;;;;;;;;;6233277;23;20051;-84
2022/03/28 00:32:41;;;;;;;12.35;9.05;;;;;;;;;;6236063;23;20429;-85
2022/03/28 00:35:07;;;;;;;15.43;9.18;;;;;;;;;;6240433;23;20452;-83
2022/03/28 00:37:35;;;;;;;14.15;9.15;;;;;;;;;;6219657;23;20024;-85
2022/03/28 00:40:01;;;;;;;12.85;7.35;;;;;;;;;;6243364;23;20024;-85
2022/03/28 00:42:27;;;;;;;15.98;9.55;;;;;;;;;;6246007;23;20131;-83
2022/03/28 00:44:53;;;;;;;16.98;11.52;;;;;;;;;;6256711;22;20004;-84
2022/03/28 00:47:20;;;;;;;15.25;10.20;;;;;;;;;;6243554;23;20055;-86
2022/03/28 00:49:46;;;;;;;13.20;10.00;;;;;;;;;;6259322;22;20020;-85
2022/03/28 00:52:12;;;;;;;16.08;9.90;;;;;;;;;;6256656;22;20031;-84
2022/03/28 00:54:38;;;;;;;15.50;10.25;;;;;;;;;;6236786;23;20095;-85
2022/03/28 00:57:05;;;;;;;11.57;7.18;;;;;;;;;;6233142;23;20047;-84
2022/03/28 00:59:32;;;;;;;12.82;7.18;;;;;;;;;;6208428;23;20062;-85
2022/03/28 01:01:59;;;;;;;8.90;5.70;;;;;;;;;;6257911;22;20020;-84
2022/03/28 01:04:31;;;;;;;10.00;7.10;;;;;;;;;;6265962;22;20027;-85
2022/03/28 01:06:58;;;;;;;10.60;5.68;;;;;;;;;;6240203;22;20103;-86
2022/03/28 01:09:24;;;;;;;9.10;5.47;;;;;;;;;;6239014;22;20077;-86
2022/03/28 01:11:51;;;;;;;9.85;4.35;;;;;;;;;;6267516;22;20404;-85
2022/03/28 01:14:18;;;;;;;8.07;5.20;;;;;;;;;;6267225;22;20019;-85
2022/03/28 01:19:29;;;;;;;8.02;4.72;;;;;;;;;;6280701;22;20039;-84
2022/03/28 01:21:55;;;;;;;8.98;3.67;;;;;;;;;;6257813;22;20020;-85
2022/03/28 01:24:28;;;;;;;6.75;4.25;;;;;;;;;;6247351;22;20024;-86
2022/03/28 01:26:55;;;;;;;8.52;4.10;;;;;;;;;;6270041;22;20027;-84
2022/03/28 01:29:21;;;;;;;2.50;2.15;;;;;;;;;;6268870;22;20043;-84
2022/03/28 01:31:48;;;;;;;2.15;1.50;;;;;;;;;;6191307;22;20022;-83
2022/03/28 01:34:17;;;;;;;2.55;1.65;;;;;;;;;;6268570;22;20031;-86
2022/03/28 01:36:45;;;;;;;6.93;1.77;;;;;;;;;;6240047;22;20050;-85
2022/03/28 01:39:12;;;;;;;2.85;2.15;;;;;;;;;;6240745;22;20024;-84
2022/03/28 01:41:38;;;;;;;4.07;2.35;;;;;;;;;;6267846;22;20460;-86
2022/03/28 01:44:05;;;;;;;5.68;2.95;;;;;;;;;;6267176;22;20015;-86
2022/03/28 01:46:31;;;;;;;5.22;2.63;;;;;;;;;;6268540;22;20877;-86
2022/03/28 01:48:57;;;;;;;5.47;2.95;;;;;;;;;;6266756;22;20038;-87
2022/03/28 01:51:23;;;;;;;5.88;2.90;;;;;;;;;;6268891;22;20089;-85
2022/03/28 01:53:49;;;;;;;7.30;2.38;;;;;;;;;;6266669;22;20026;-86
2022/03/28 01:56:15;;;;;;;6.00;2.88;;;;;;;;;;6241670;22;20054;-84
2022/03/28 01:58:42;;;;;;;3.03;2.40;;;;;;;;;;6266860;22;20012;-85
2022/03/28 02:01:08;;;;;;;10.52;2.78;;;;;;;;;;6236963;22;20019;-85
2022/03/28 02:06:51;;;;;;;4.88;2.45;;;;;;;;;;6267375;22;20023;-83
2022/03/28 02:09:17;;;;;;;3.92;2.30;;;;;;;;;;6266299;22;20020;-84
2022/03/28 02:11:43;;;;;;;3.47;1.85;;;;;;;;;;6241860;22;20083;-82
2022/03/28 02:14:12;;;;;;;2.95;1.50;;;;;;;;;;6265117;22;20023;-82
2022/03/28 02:16:41;;;;;;;4.05;1.80;;;;;;;;;;6266165;22;20016;-81
2022/03/28 02:19:07;;;;;;;1.73;1.60;;;;;;;;;;6266036;22;20398;-82
2022/03/28 02:21:33;;;;;;;9.48;2.10;;;;;;;;;;6238356;22;20092;-81
2022/03/28 02:24:00;;;;;;;4.28;2.03;;;;;;;;;;6188782;22;20016;-82
2022/03/28 02:26:26;;;;;;;4.32;2.17;;;;;;;;;;6263841;22;20126;-82
2022/03/28 02:28:52;;;;;;;2.53;2.22;;;;;;;;;;6266082;22;20027;-82
2022/03/28 02:31:19;;;;;;;17.52;2.60;;;;;;;;;;6185582;22;20022;-82
2022/03/28 02:33:45;;;;;;;3.85;2.38;;;;;;;;;;6265528;22;20090;-82
2022/03/28 02:36:12;;;;;;;3.65;2.92;;;;;;;;;;6263951;22;20023;-81
2022/03/28 02:38:38;;;;;;;5.43;3.65;;;;;;;;;;6188456;22;20011;-84
2022/03/28 02:41:04;;;;;;;7.95;5.90;;;;;;;;;;6239125;22;20023;-82
2022/03/28 02:43:30;;;;;;;6.50;5.20;;;;;;;;;;6264027;22;20460;-82
2022/03/28 02:45:56;;;;;;;5.63;4.07;;;;;;;;;;6266887;22;20056;-81
2022/03/28 02:48:22;;;;;;;5.25;3.67;;;;;;;;;;6236810;22;20047;-82
2022/03/28 02:50:49;;;;;;;6.70;3.67;;;;;;;;;;6267194;22;20062;-82
2022/03/28 02:56:16;;;;;;;10.13;5.57;;;;;;;;;;6237815;22;20046;-82
2022/03/28 02:58:43;;;;;;;17.50;7.63;;;;;;;;;;6237003;22;20460;-82
2022/03/28 03:01:09;;;;;;;12.10;6.93;;;;;;;;;;6215253;22;20047;-81
2022/03/28 03:03:35;;;;;;;19.88;9.00;;;;;;;;;;6266558;22;20128;-82
2022/03/28 03:06:02;;;;;;;17.02;8.02;;;;;;;;;;6263798;22;20027;-83
2022/03/28 03:08:29;;;;;;;21.63;9.55;;;;;;;;;;6239295;22;20385;-82
2022/03/28 03:10:55;;;;;;;25.00;10.63;;;;;;;;;;6264244;22;20027;-82
2022/03/28 03:13:31;;;;;;;18.77;8.32;;;;;;;;;;6267199;22;20023;-82
2022/03/28 03:15:58;;;;;;;24.52;8.60;;;;;;;;;;6211118;22;20027;-84
2022/03/28 03:18:25;;;;;;;23.48;9.50;;;;;;;;;;6214205;22;20022;-83
2022/03/28 03:20:51;;;;;;;22.23;9.68;;;;;;;;;;6263819;22;20022;-83
2022/03/28 03:23:17;;;;;;;26.00;12.25;;;;;;;;;;6216425;22;20123;-82
2022/03/28 03:25:43;;;;;;;29.05;12.45;;;;;;;;;;6267259;22;20023;-83
2022/03/28 03:28:09;;;;;;;31.52;10.82;;;;;;;;;;6238369;22;20099;-82
2022/03/28 03:30:35;;;;;;;22.45;10.05;;;;;;;;;;6268412;22;20015;-84
2022/03/28 03:33:01;;;;;;;16.30;9.45;;;;;;;;;;6266501;22;20015;-83
2022/03/28 03:35:28;;;;;;;11.35;8.07;;;;;;;;;;6271613;22;20030;-84
2022/03/28 03:37:54;;;;;;;10.98;6.88;;;;;;;;;;6202027;22;20026;-83
2022/03/28 03:40:20;;;;;;;9.05;6.88;;;;;;;;;;6255690;22;20069;-85
2022/03/28 03:42:47;;;;;;;11.50;6.65;;;;;;;;;;6272714;22;20016;-84
2022/03/28 03:45:14;;;;;;;8.00;6.00;;;;;;;;;;6269831;22;20019;-83
2022/03/28 03:47:40;;;;;;;6.30;5.30;;;;;;;;;;6265946;22;20042;-83
2022/03/28 03:50:07;;;;;;;8.88;6.78;;;;;;;;;;6212985;22;20444;-83
2022/03/28 03:52:33;;;;;;;7.53;5.30;;;;;;;;;;6265687;22;20448;-82
2022/03/28 03:54:59;;;;;;;8.93;6.72;;;;;;;;;;6263337;22;20023;-83
2022/03/28 03:59:55;;;;;;;7.07;5.35;;;;;;;;;;6205050;22;20481;-83
2022/03/28 04:02:21;;;;;;;7.78;6.03;;;;;;;;;;6200628;23;20685;-83
2022/03/28 04:08:00;;;;;;;10.50;7.20;;;;;;;;;;6195993;23;20035;-83
2022/03/28 04:10:27;;;;;;;11.45;8.57;;;;;;;;;;6201032;23;20072;-84
2022/03/28 04:12:53;;;;;;;12.85;7.78;;;;;;;;;;6152975;23;20058;-84
2022/03/28 04:15:19;;;;;;;12.60;8.05;;;;;;;;;;6201350;23;20017;-84
2022/03/28 04:17:45;;;;;;;13.25;9.35;;;;;;;;;;6204384;23;20035;-84
2022/03/28 04:20:15;;;;;;;11.90;8.90;;;;;;;;;;6200673;23;20024;-83
2022/03/28 04:22:48;;;;;;;13.18;7.63;;;;;;;;;;6179928;23;20016;-83
2022/03/28 04:25:14;;;;;;;10.57;6.40;;;;;;;;;;6158439;23;20039;-82
2022/03/28 04:27:41;;;;;;;11.23;7.05;;;;;;;;;;6219400;23;20024;-82
2022/03/28 04:30:08;;;;;;;10.35;7.05;;;;;;;;;;6222634;23;20017;-85
2022/03/28 04:32:35;;;;;;;7.20;6.50;;;;;;;;;;6189345;23;20354;-83
2022/03/28 04:35:01;;;;;;;8.23;5.47;;;;;;;;;;6181843;23;20017;-85
2022/03/28 04:37:27;;;;;;;6.60;5.45;;;;;;;;;;6205147;23;20023;-85
2022/03/28 04:39:56;;;;;;;8.27;6.15;;;;;;;;;;6178052;23;20099;-87
2022/03/28 04:42:23;;;;;;;7.07;5.43;;;;;;;;;;6175135;23;20017;-84
2022/03/28 04:44:49;;;;;;;6.55;4.32;;;;;;;;;;6177611;23;20619;-84
2022/03/28 04:47:15;;;;;;;4.88;3.25;;;;;;;;;;6201813;23;20028;-84
2022/03/28 04:49:41;;;;;;;5.28;3.63;;;;;;;;;;6203310;23;20021;-83
2022/03/28 04:52:07;;;;;;;4.82;3.60;;;;;;;;;;6151908;23;20013;-83
2022/03/28 04:54:36;;;;;;;4.03;3.20;;;;;;;;;;6201903;23;20476;-84
2022/03/28 04:57:04;;;;;;;3.60;3.03;;;;;;;;;;6152643;23;20536;-85
2022/03/28 04:59:30;;;;;;;6.28;3.22;;;;;;;;;;6125510;23;20021;-85
2022/03/28 05:02:06;;;;;;;5.20;4.10;;;;;;;;;;6208021;23;20128;-85
2022/03/28 05:04:32;;;;;;;12.57;6.70;;;;;;;;;;6204411;23;20102;-84
2022/03/28 05:06:59;;;;;;;6.43;5.30;;;;;;;;;;6208683;23;20059;-84
2022/03/28 05:09:25;;;;;;;8.00;6.43;;;;;;;;;;6205364;23;20352;-85
2022/03/28 05:11:51;;;;;;;8.48;6.30;;;;;;;;;;6207806;23;20025;-83
2022/03/28 05:14:22;;;;;;;9.48;7.05;;;;;;;;;;6178902;23;20024;-84
2022/03/28 05:16:49;;;;;;;10.05;7.15;;;;;;;;;;6154250;23;20025;-84
2022/03/28 05:19:21;;;;;;;9.02;6.03;;;;;;;;;;6208557;23;20081;-83
2022/03/28 05:21:47;;;;;;;3.95;3.58;;;;;;;;;;6180249;23;20028;-83
2022/03/28 05:24:13;;;;;;;4.38;3.22;;;;;;;;;;6208088;23;20025;-85
2022/03/28 05:26:53;;;;;;;8.65;3.70;;;;;;;;;;6204928;23;20200;-84
2022/03/28 05:29:23;;;;;;;6.60;3.85;;;;;;;;;;6180842;23;20028;-83
2022/03/28 05:32:08;;;;;;;8.10;4.30;;;;;;;;;;6204838;23;20048;-82
2022/03/28 05:34:35;;;;;;;5.68;4.85;;;;;;;;;;6208139;23;20348;-84
2022/03/28 05:37:02;;;;;;;7.10;4.68;;;;;;;;;;6205890;23;20120;-84
2022/03/28 05:39:28;;;;;;;4.88;4.40;;;;;;;;;;6206397;23;20016;-83
2022/03/28 05:41:55;;;;;;;6.43;4.80;;;;;;;;;;6206204;23;20413;-84
2022/03/28 05:44:21;;;;;;;9.60;4.65;;;;;;;;;;6207513;23;20027;-84
2022/03/28 05:46:51;;;;;;;4.47;4.07;;;;;;;;;;6207875;23;20039;-85
2022/03/28 05:49:22;;;;;;;6.20;4.30;;;;;;;;;;6180021;23;20392;-85
2022/03/28 05:51:49;;;;;;;7.32;6.03;;;;;;;;;;6208050;23;20465;-85
2022/03/28 05:54:16;;;;;;;7.75;6.95;;;;;;;;;;6207971;23;20482;-83
2022/03/28 05:56:42;;;;;;;12.73;8.20;;;;;;;;;;6210007;23;20008;-84
2022/03/28 05:59:08;;;;;;;10.80;7.45;;;;;;;;;;6185284;23;20428;-85
2022/03/28 06:01:35;;;;;;;9.13;7.30;;;;;;;;;;6211000;23;20074;-84
2022/03/28 06:04:13;;;;;;;10.27;7.53;;;;;;;;;;6204461;23;20504;-83
2022/03/28 06:06:46;;;;;;;8.50;7.32;;;;;;;;;;6176608;23;20024;-83
2022/03/28 06:09:13;;;;;;;12.05;6.95;;;;;;;;;;6180634;23;20053;-82
2022/03/28 06:11:39;;;;;;;10.32;7.53;;;;;;;;;;6155650;23;20017;-83
2022/03/28 06:14:06;;;;;;;10.52;8.05;;;;;;;;;;6208859;23;20102;-80
2022/03/28 06:16:32;;;;;;;8.82;7.22;;;;;;;;;;6205747;23;20075;-85
2022/03/28 06:18:58;;;;;;;9.18;7.70;;;;;;;;;;6180869;23;20483;-81
2022/03/28 06:21:24;;;;;;;11.43;8.60;;;;;;;;;;6178415;23;20017;-82
2022/03/28 06:23:50;;;;;;;11.45;8.25;;;;;;;;;;6208238;23;20039;-82
2022/03/28 06:26:17;;;;;;;11.93;8.32;;;;;;;;;;6203435;23;20462;-82
2022/03/28 06:28:46;;;;;;;13.68;8.88;;;;;;;;;;6208242;23;20048;-83
2022/03/28 06:31:12;;;;;;;11.65;9.23;;;;;;;;;;6177310;23;20071;-82
2022/03/28 06:33:38;;;;;;;13.00;10.82;;;;;;;;;;6207414;23;20021;-81
2022/03/28 06:36:05;;;;;;;13.50;9.82;;;;;;;;;;6180086;23;20461;-82
2022/03/28 06:38:31;;;;;;;13.00;9.85;;;;;;;;;;6208481;23;20013;-83
2022/03/28 06:41:00;;;;;;;14.40;10.85;;;;;;;;;;6180704;23;20097;-83
2022/03/28 06:43:26;;;;;;;13.57;9.73;;;;;;;;;;6156472;23;20104;-82
2022/03/28 06:45:52;;;;;;;11.10;9.55;;;;;;;;;;6211876;23;20060;-83
2022/03/28 06:48:21;;;;;;;14.57;10.23;;;;;;;;;;6208180;23;20418;-82
2022/03/28 06:50:47;;;;;;;15.45;10.32;;;;;;;;;;6211202;23;20021;-81
2022/03/28 06:53:13;;;;;;;12.07;9.50;;;;;;;;;;6160992;23;20020;-82
2022/03/28 06:55:40;;;;;;;18.95;10.70;;;;;;;;;;6215406;23;20020;-83
2022/03/28 06:58:06;;;;;;;14.82;10.85;;;;;;;;;;6182829;23;20016;-83
2022/03/28 07:00:34;;;;;;;12.13;10.15;;;;;;;;;;6207011;23;20036;-84
2022/03/28 07:03:00;;;;;;;11.95;9.52;;;;;;;;;;6207261;23;20188;-83
2022/03/28 07:05:28;;;;;;;16.40;10.68;;;;;;;;;;6206307;23;20027;-83
2022/03/28 07:07:56;;;;;;;15.52;10.73;;;;;;;;;;6210936;23;20147;-81
2022/03/28 07:10:22;;;;;;;15.68;10.60;;;;;;;;;;6206030;23;20031;-83
2022/03/28 07:12:51;;;;;;;13.13;9.65;;;;;;;;;;6208559;23;20028;-83
2022/03/28 07:15:17;;;;;;;18.88;11.02;;;;;;;;;;6179200;23;20078;-82
2022/03/28 07:17:46;;;;;;;16.55;10.70;;;;;;;;;;6207696;23;20448;-83
2022/03/28 07:20:12;;;;;;;13.18;11.07;;;;;;;;;;6207067;23;20095;-82
2022/03/28 07:22:48;;;;;;;18.13;11.68;;;;;;;;;;6205907;23;20022;-84
2022/03/28 07:25:14;;;;;;;16.95;11.27;;;;;;;;;;6155507;23;20739;-84
2022/03/28 07:27:41;;;;;;;17.25;11.05;;;;;;;;;;6179452;23;20020;-83
2022/03/28 07:30:08;;;;;;;15.75;11.82;;;;;;;;;;6180981;23;20602;-84
2022/03/28 07:32:41;;;;;;;21.00;12.98;;;;;;;;;;6178711;23;20038;-82
2022/03/28 07:35:10;;;;;;;19.65;12.55;;;;;;;;;;6158398;23;20023;-82
2022/03/28 07:37:38;;;;;;;20.85;12.43;;;;;;;;;;6222240;23;20054;-82
2022/03/28 07:40:05;;;;;;;16.40;12.10;;;;;;;;;;6192375;23;20028;-82
2022/03/28 07:42:32;;;;;;;17.70;11.98;;;;;;;;;;6221540;23;20119;-83
2022/03/28 07:44:58;;;;;;;19.52;11.05;;;;;;;;;;6213981;23;20557;-84
2022/03/28 07:47:28;;;;;;;16.75;12.18;;;;;;;;;;6208271;23;20357;-83
2022/03/28 07:49:54;;;;;;;17.08;11.70;;;;;;;;;;6179181;23;20412;-82
2022/03/28 07:52:21;;;;;;;16.02;11.63;;;;;;;;;;6206472;23;20020;-82
2022/03/28 07:54:48;;;;;;;13.50;10.32;;;;;;;;;;6130508;23;20024;-82
2022/03/28 07:57:14;;;;;;;16.40;11.02;;;;;;;;;;6206669;23;20074;-82
2022/03/28 07:59:44;;;;;;;13.30;10.80;;;;;;;;;;6206851;23;20475;-82
2022/03/28 08:02:10;;;;;;;16.83;11.38;;;;;;;;;;6204712;23;20334;-84
2022/03/28 08:04:37;;;;;;;20.80;11.70;;;;;;;;;;6181253;23;20025;-86
2022/03/28 08:07:05;;;;;;;17.17;11.40;;;;;;;;;;6154277;23;20035;-86
2022/03/28 08:09:32;;;;;;;16.50;11.70;;;;;;;;;;6223609;23;20016;-85
2022/03/28 08:11:59;;;;;;;17.55;10.65;;;;;;;;;;6221858;23;20079;-85
2022/03/28 08:14:25;;;;;;;16.27;9.63;;;;;;;;;;6229434;23;20024;-85
2022/03/28 08:16:52;;;;;;;16.70;10.57;;;;;;;;;;6216044;23;20024;-86
2022/03/28 08:19:18;;;;;;;10.70;9.40;;;;;;;;;;6183501;23;20047;-85
2022/03/28 08:21:44;;;;;;;11.80;9.55;;;;;;;;;;6208595;23;20023;-90
2022/03/28 08:24:10;;;;;;;15.10;9.27;;;;;;;;;;6205083;23;20017;-88
2022/03/28 08:26:36;;;;;;;17.65;9.77;;;;;;;;;;6154779;23;20020;-88
2022/03/28 08:29:04;;;;;;;15.02;9.80;;;;;;;;;;6178296;23;20339;-91
2022/03/28 08:31:30;;;;;;;13.07;10.30;;;;;;;;;;6207034;23;20016;-89
2022/03/28 08:33:56;;;;;;;18.85;12.50;;;;;;;;;;6153245;23;20362;-90
2022/03/28 08:36:23;;;;;;;15.35;12.77;;;;;;;;;;6206051;23;20087;-89
2022/03/28 08:38:49;;;;;;;19.83;14.63;;;;;;;;;;6179610;23;20056;-88
2022/03/28 08:41:17;;;;;;;18.98;14.02;;;;;;;;;;6177175;23;20017;-84
2022/03/28 08:43:43;;;;;;;19.15;13.10;;;;;;;;;;6206904;23;20043;-83
2022/03/28 08:46:10;;;;;;;17.08;11.30;;;;;;;;;;6178547;23;20028;-89
2022/03/28 08:48:40;;;;;;;19.40;10.73;;;;;;;;;;6180219;23;20028;-88
2022/03/28 08:51:10;;;;;;;13.38;9.88;;;;;;;;;;6205337;23;20808;-87
2022/03/28 08:53:36;;;;;;;15.52;10.43;;;;;;;;;;6205649;23;20016;-90
2022/03/28 08:56:03;;;;;;;17.90;11.88;;;;;;;;;;6206529;23;20099;-86
2022/03/28 08:58:29;;;;;;;19.27;12.63;;;;;;;;;;6204948;23;20025;-85
2022/03/28 09:00:55;;;;;;;18.38;12.07;;;;;;;;;;6180151;23;20055;-92
2022/03/28 09:03:34;;;;;;;15.15;11.88;;;;;;;;;;6154290;23;20488;-88
2022/03/28 09:06:00;;;;;;;17.92;11.23;;;;;;;;;;6206373;23;20099;-85
2022/03/28 09:08:27;;;;;;;16.65;11.98;;;;;;;;;;6204044;23;20021;-90
2022/03/28 09:10:56;;;;;;;18.23;11.50;;;;;;;;;;6206025;23;20103;-89
2022/03/28 09:13:23;;;;;;;19.92;12.55;;;;;;;;;;6206176;23;20695;-87
2022/03/28 09:15:51;;;;;;;14.88;10.82;;;;;;;;;;6129779;23;20103;-87
2022/03/28 09:18:24;;;;;;;17.52;12.27;;;;;;;;;;6154551;23;20028;-91
2022/03/28 09:21:00;;;;;;;21.20;12.48;;;;;;;;;;6177390;23;20354;-91
2022/03/28 09:23:40;;;;;;;17.45;10.90;;;;;;;;;;6179142;23;20045;-86
2022/03/28 09:26:08;;;;;;;18.50;10.77;;;;;;;;;;6204576;23;20020;-86
2022/03/28 09:28:46;;;;;;;14.35;10.02;;;;;;;;;;6206018;23;20020;-84
2022/03/28 09:31:21;;;;;;;14.55;9.15;;;;;;;;;;6206053;23;20063;-90
2022/03/28 09:34:09;;;;;;;12.10;8.38;;;;;;;;;;6203758;23;20082;-89
2022/03/28 09:36:35;;;;;;;14.70;9.80;;;;;;;;;;6180054;23;20073;-90
2022/03/28 09:39:02;;;;;;;13.70;9.88;;;;;;;;;;6177706;23;20031;-93
2022/03/28 09:41:29;;;;;;;18.45;11.48;;;;;;;;;;6209973;23;20032;-89
2022/03/28 09:43:56;;;;;;;20.15;13.23;;;;;;;;;;6181664;23;20031;-93
2022/03/28 09:46:25;;;;;;;18.88;13.57;;;;;;;;;;6210204;23;20012;-86
2022/03/28 09:48:52;;;;;;;25.35;13.68;;;;;;;;;;6210682;23;20021;-91
2022/03/28 09:51:21;;;;;;;19.48;14.43;;;;;;;;;;6185624;23;20400;-87
2022/03/28 09:53:48;;;;;;;21.73;14.65;;;;;;;;;;6187380;23;20013;-93
2022/03/28 09:56:14;;;;;;;21.67;15.65;;;;;;;;;;6183720;23;20086;-90
2022/03/28 09:58:43;;;;;;;28.45;20.55;;;;;;;;;;6215000;23;20016;-92
2022/03/28 10:01:15;;;;;;;27.38;19.27;;;;;;;;;;6212203;23;20032;-93
2022/03/28 10:03:41;;;;;;;23.23;16.33;;;;;;;;;;6209027;23;20024;-91
2022/03/28 10:06:08;;;;;;;24.55;16.63;;;;;;;;;;6179272;23;20034;-91
2022/03/28 10:08:35;;;;;;;22.13;16.13;;;;;;;;;;6181059;23;20076;-91
2022/03/28 10:11:02;;;;;;;25.70;17.40;;;;;;;;;;6156682;23;20319;-93
2022/03/28 10:13:30;;;;;;;22.35;16.30;;;;;;;;;;6178400;23;20051;-90
2022/03/28 10:15:57;;;;;;;20.85;15.60;;;;;;;;;;6156051;23;20016;-89
2022/03/28 10:18:24;;;;;;;25.73;20.23;;;;;;;;;;6204613;23;20111;-93
2022/03/28 10:20:54;;;;;;;25.40;20.08;;;;;;;;;;6209042;23;20024;-91
2022/03/28 10:23:23;;;;;;;26.63;20.08;;;;;;;;;;6208208;23;20449;-92
2022/03/28 10:25:51;;;;;;;23.52;17.42;;;;;;;;;;6156214;23;20013;-89
2022/03/28 10:28:20;;;;;;;18.88;11.70;;;;;;;;;;6183772;23;20020;-92
2022/03/28 10:30:47;;;;;;;16.13;11.80;;;;;;;;;;6210114;23;20110;-87
2022/03/28 10:33:18;;;;;;;19.13;10.88;;;;;;;;;;6214877;23;20020;-90
2022/03/28 10:36:01;;;;;;;14.60;9.77;;;;;;;;;;6210229;23;20096;-91
2022/03/28 10:38:27;;;;;;;14.90;9.85;;;;;;;;;;6185316;23;20784;-87
2022/03/28 10:41:01;;;;;;;15.27;10.27;;;;;;;;;;6184386;23;20306;-90
2022/03/28 10:43:29;;;;;;;14.90;10.38;;;;;;;;;;6157785;23;20035;-90
2022/03/28 10:45:56;;;;;;;13.07;10.57;;;;;;;;;;6209174;23;20024;-90
2022/03/28 10:48:41;;;;;;;17.83;10.35;;;;;;;;;;6133068;23;20025;-85
2022/03/28 10:51:07;;;;;;;;;;;;;;;;;;6212012;23;20904;-87
2022/03/28 10:53:39;;;;;;;15.15;9.23;;;;;;;;;;6181159;23;19958;-88
2022/03/28 10:56:13;;;;;;;14.15;10.10;;;;;;;;;;6184696;23;20095;-86
2022/03/28 10:58:44;;;;;;;15.43;10.13;;;;;;;;;;6157924;23;20041;-88
2022/03/28 11:01:12;;;;;;;20.17;11.63;;;;;;;;;;6158941;23;20028;-91
2022/03/28 11:03:41;;;;;;;13.77;9.38;;;;;;;;;;6161786;23;20025;-89
2022/03/28 11:06:07;;;;;;;14.88;10.30;;;;;;;;;;6212367;23;20068;-88
2022/03/28 11:08:36;;;;;;;18.20;10.30;;;;;;;;;;6207806;23;20021;-88
2022/03/28 11:11:22;;;;;;;16.75;11.70;;;;;;;;;;6179024;23;20047;-87
2022/03/28 11:13:58;;;;;;;16.92;11.40;;;;;;;;;;6207100;23;20024;-86
2022/03/28 11:16:38;;;;;;;16.45;11.80;;;;;;;;;;6178591;23;20020;-87
2022/03/28 11:19:20;;;;;;;21.02;12.27;;;;;;;;;;6206208;23;20055;-85
2022/03/28 11:21:56;;;;;;;19.70;12.02;;;;;;;;;;6207730;23;20199;-87
2022/03/28 11:24:42;;;;;;;16.30;12.70;;;;;;;;;;6206223;23;20108;-85
2022/03/28 11:27:09;;;;;;;21.48;12.65;;;;;;;;;;6180119;23;20391;-84
2022/03/28 11:29:35;;;;;;;20.50;12.07;;;;;;;;;;6178081;23;20398;-85
2022/03/28 11:32:20;;;;;;;24.17;14.15;;;;;;;;;;6178407;23;20054;-88
2022/03/28 11:34:50;;;;;;;20.25;13.50;;;;;;;;;;6205776;23;20023;-90
2022/03/28 11:37:18;;;;;;;23.92;12.88;;;;;;;;;;6206362;23;20020;-86
2022/03/28 11:40:03;;;;;;;17.92;13.25;;;;;;;;;;6207401;23;20517;-84
2022/03/28 11:42:30;;;;;;;20.85;12.95;;;;;;;;;;6178362;23;20056;-88
2022/03/28 11:44:56;;;;;;;19.88;13.00;;;;;;;;;;6206798;23;20488;-84
2022/03/28 11:47:23;;;;;;;18.40;12.43;;;;;;;;;;6178593;23;20120;-90
2022/03/28 11:49:53;;;;;;;20.92;12.50;;;;;;;;;;6155083;23;20016;-87
2022/03/28 11:52:20;;;;;;;16.90;13.02;;;;;;;;;;6180019;23;20047;-88
2022/03/28 11:54:46;;;;;;;16.23;11.75;;;;;;;;;;6177333;23;20020;-84
2022/03/28 12:00:11;;;;;;;18.10;12.48;;;;;;;;;;6230490;23;20039;-85
2022/03/28 12:02:46;;;;;;;18.27;12.75;;;;;;;;;;6186030;23;20027;-84
2022/03/28 12:05:12;;;;;;;18.90;12.63;;;;;;;;;;6208715;23;20017;-88
2022/03/28 12:07:40;;;;;;;16.00;12.32;;;;;;;;;;6207099;23;20016;-88
2022/03/28 12:10:08;;;;;;;18.35;12.02;;;;;;;;;;6206466;23;20071;-91
2022/03/28 12:12:49;;;;;;;16.10;12.32;;;;;;;;;;6179388;23;20062;-89
2022/03/28 12:15:23;;;;;;;16.58;10.65;;;;;;;;;;6208333;23;20028;-85
2022/03/28 12:17:57;;;;;;;15.88;11.43;;;;;;;;;;6179512;23;20016;-89
2022/03/28 12:20:24;;;;;;;14.00;11.27;;;;;;;;;;6206453;23;20028;-83
2022/03/28 12:22:50;;;;;;;18.60;11.10;;;;;;;;;;6206129;23;20020;-86
2022/03/28 12:25:37;;;;;;;16.08;10.93;;;;;;;;;;6205980;23;20017;-88
2022/03/28 12:28:14;;;;;;;14.85;10.05;;;;;;;;;;6178996;23;20024;-89
2022/03/28 12:30:45;;;;;;;17.90;9.82;;;;;;;;;;6204014;23;20101;-91
2022/03/28 12:33:12;;;;;;;15.00;9.50;;;;;;;;;;6205864;23;20021;-92
2022/03/28 12:35:40;;;;;;;14.25;9.32;;;;;;;;;;6204474;23;20476;-84
2022/03/28 12:38:08;;;;;;;12.77;8.90;;;;;;;;;;6153534;23;20021;-90
2022/03/28 12:40:35;;;;;;;12.43;8.80;;;;;;;;;;6180095;23;20025;-88
2022/03/28 12:43:04;;;;;;;16.10;8.75;;;;;;;;;;6207368;23;20953;-85
2022/03/28 12:45:31;;;;;;;15.02;9.60;;;;;;;;;;6179443;23;20099;-91
2022/03/28 12:48:06;;;;;;;14.80;9.57;;;;;;;;;;6204674;23;20884;-91
2022/03/28 12:50:34;;;;;;;17.17;9.88;;;;;;;;;;6206163;23;20165;-88
2022/03/28 12:53:16;;;;;;;15.70;9.63;;;;;;;;;;6205016;23;20019;-91
2022/03/28 12:55:43;;;;;;;16.13;9.43;;;;;;;;;;6205316;23;20543;-85
2022/03/28 12:58:10;;;;;;;16.17;9.82;;;;;;;;;;6207350;23;20025;-91
2022/03/28 13:00:37;;;;;;;12.60;9.70;;;;;;;;;;6205428;23;20100;-86
2022/03/28 13:03:03;;;;;;;12.07;9.32;;;;;;;;;;6206383;23;20282;-89
2022/03/28 13:05:34;;;;;;;12.85;9.98;;;;;;;;;;6179204;23;20072;-83
2022/03/28 13:08:10;;;;;;;15.05;9.68;;;;;;;;;;6205941;23;20743;-91
2022/03/28 13:10:41;;;;;;;16.73;10.98;;;;;;;;;;6179163;23;20048;-87
2022/03/28 13:13:10;;;;;;;11.98;10.13;;;;;;;;;;6183382;23;20020;-90
2022/03/28 13:15:39;;;;;;;12.50;10.15;;;;;;;;;;6211276;23;20024;-91
2022/03/28 13:18:10;;;;;;;13.52;9.70;;;;;;;;;;6187552;23;20066;-85
2022/03/28 13:20:41;;;;;;;12.57;9.98;;;;;;;;;;6182893;23;20500;-84
2022/03/28 13:23:26;;;;;;;15.77;9.95;;;;;;;;;;6218670;23;20032;-84
2022/03/28 13:25:52;;;;;;;15.35;9.55;;;;;;;;;;6222056;23;20108;-85
2022/03/28 13:28:25;;;;;;;15.43;9.85;;;;;;;;;;6221307;23;20020;-93
2022/03/28 13:30:54;;;;;;;14.88;9.85;;;;;;;;;;6218155;23;20040;-91
2022/03/28 13:33:20;;;;;;;22.60;9.80;;;;;;;;;;6165873;23;20574;-90
2022/03/28 13:35:48;;;;;;;15.05;9.60;;;;;;;;;;6183792;23;20036;-84
2022/03/28 13:38:15;;;;;;;14.85;9.68;;;;;;;;;;6214427;23;20024;-83
2022/03/28 13:40:43;;;;;;;15.52;10.15;;;;;;;;;;6211488;23;20336;-88
2022/03/28 13:43:09;;;;;;;16.30;9.82;;;;;;;;;;6185661;23;20357;-86
2022/03/28 13:45:36;;;;;;;12.73;8.98;;;;;;;;;;6188857;23;20016;-91
2022/03/28 13:48:04;;;;;;;13.30;9.80;;;;;;;;;;6213860;23;20024;-88
2022/03/28 13:50:30;;;;;;;14.70;9.80;;;;;;;;;;6215166;23;20020;-92
2022/03/28 13:52:59;;;;;;;14.77;9.52;;;;;;;;;;6215413;23;20087;-90
2022/03/28 13:55:25;;;;;;;15.20;10.05;;;;;;;;;;6214318;23;20016;-90
2022/03/28 13:57:52;;;;;;;13.95;10.15;;;;;;;;;;6187197;23;20039;-86
2022/03/28 14:00:21;;;;;;;13.18;9.77;;;;;;;;;;6213555;23;20051;-88
2022/03/28 14:02:48;;;;;;;17.85;10.82;;;;;;;;;;6218272;23;20028;-84
2022/03/28 14:05:14;;;;;;;14.40;10.30;;;;;;;;;;6188567;23;20398;-91
2022/03/28 14:07:40;;;;;;;17.70;10.73;;;;;;;;;;6135304;23;20062;-91
2022/03/28 14:10:07;;;;;;;13.10;10.38;;;;;;;;;;6191798;23;20027;-93
2022/03/28 14:12:34;;;;;;;15.63;10.85;;;;;;;;;;6149823;23;20027;-85
2022/03/28 14:15:01;;;;;;;14.90;11.35;;;;;;;;;;6226765;23;20064;-87
2022/03/28 14:17:28;;;;;;;13.88;11.45;;;;;;;;;;6195205;23;20018;-85
2022/03/28 14:19:55;;;;;;;16.73;12.50;;;;;;;;;;6191597;23;20013;-86
2022/03/28 14:22:22;;;;;;;15.93;12.90;;;;;;;;;;6183835;23;20021;-85
2022/03/28 14:24:48;;;;;;;20.38;13.10;;;;;;;;;;6213676;23;20024;-87
2022/03/28 14:27:33;;;;;;;16.02;12.73;;;;;;;;;;6212749;23;20544;-92
2022/03/28 14:30:03;;;;;;;19.60;13.93;;;;;;;;;;6210534;23;20024;-87
2022/03/28 14:32:29;;;;;;;17.23;13.15;;;;;;;;;;6156321;23;20102;-84
2022/03/28 14:34:58;;;;;;;16.77;13.55;;;;;;;;;;6178641;23;20349;-87
2022/03/28 14:37:25;;;;;;;16.30;13.65;;;;;;;;;;6205603;23;20025;-84
2022/03/28 14:39:51;;;;;;;17.08;12.70;;;;;;;;;;6177746;23;20641;-88
2022/03/28 14:42:17;;;;;;;18.45;13.95;;;;;;;;;;6179868;23;20100;-85
2022/03/28 14:44:44;;;;;;;18.73;15.02;;;;;;;;;;6152484;23;20017;-85
2022/03/28 14:47:11;;;;;;;17.88;13.25;;;;;;;;;;6151696;23;20666;-84
2022/03/28 14:49:38;;;;;;;23.45;14.55;;;;;;;;;;6177295;23;20016;-86
2022/03/28 14:52:05;;;;;;;19.23;13.35;;;;;;;;;;6205230;23;20468;-84